Time;durP1;ratioP1;P1;durP2;ratioP2;P2;SDS_P1;SDS_P2;PMS_P1;PMS_P2;Temp;Humidity;BMP_temperature;BMP_pressure;BME280_temperature;BME280_humidity;BME280_pressure;Samples;Min_cycle;Max_cycle;Signal;HPM_P1;HPM_P2
2023/10/09 00:00:35;;;;;;;;;19.33;19.00;;;;;;;;6280924;22;45757;-73
2023/10/09 00:03:01;;;;;;;;;22.33;20.67;;;;;;;;6309251;22;45338;-73
2023/10/09 00:08:10;;;;;;;;;18.00;15.67;;;;;;;;6309273;22;45330;-74
2023/10/09 00:10:45;;;;;;;;;20.33;18.67;;;;;;;;6309683;22;45270;-73
2023/10/09 00:13:10;;;;;;;;;21.00;18.33;;;;;;;;6309625;22;45316;-73
2023/10/09 00:15:36;;;;;;;;;17.67;16.33;;;;;;;;6309599;22;45271;-74
2023/10/09 00:18:04;;;;;;;;;19.00;16.00;;;;;;;;6280903;22;45453;-73
2023/10/09 00:20:38;;;;;;;;;17.33;16.00;;;;;;;;6281276;22;47799;-73
2023/10/09 00:23:12;;;;;;;;;15.00;13.67;;;;;;;;6308650;22;45362;-73
2023/10/09 00:25:44;;;;;;;;;14.33;14.00;;;;;;;;6280459;22;45308;-73
2023/10/09 00:28:10;;;;;;;;;17.33;16.67;;;;;;;;6308894;22;45296;-73
2023/10/09 00:30:40;;;;;;;;;13.00;12.00;;;;;;;;6309311;22;46355;-73
2023/10/09 00:33:07;;;;;;;;;17.67;14.67;;;;;;;;6309292;22;45243;-73
2023/10/09 00:35:36;;;;;;;;;15.33;13.00;;;;;;;;6280860;22;45169;-73
2023/10/09 00:38:10;;;;;;;;;18.00;14.33;;;;;;;;6308757;22;45408;-73
2023/10/09 00:40:45;;;;;;;;;15.67;15.00;;;;;;;;6309164;22;45466;-73
2023/10/09 00:43:13;;;;;;;;;16.67;16.00;;;;;;;;6281134;22;45335;-73
2023/10/09 00:45:40;;;;;;;;;20.67;18.33;;;;;;;;6281493;22;45237;-73
2023/10/09 00:48:06;;;;;;;;;12.00;10.33;;;;;;;;6281313;22;46359;-74
2023/10/09 00:50:35;;;;;;;;;12.67;12.00;;;;;;;;6309000;22;45880;-73
2023/10/09 00:53:08;;;;;;;;;18.00;16.00;;;;;;;;6281161;22;45235;-74
2023/10/09 00:55:45;;;;;;;;;15.33;13.33;;;;;;;;6309776;22;45224;-74
2023/10/09 00:58:14;;;;;;;;;18.67;14.00;;;;;;;;6280952;22;46065;-73
2023/10/09 01:05:56;;;;;;;;;12.67;12.67;;;;;;;;6308915;22;45228;-74
2023/10/09 01:08:35;;;;;;;;;16.33;14.67;;;;;;;;6308475;22;45319;-74
2023/10/09 01:11:09;;;;;;;;;13.67;13.67;;;;;;;;6308640;22;45169;-73
2023/10/09 01:16:07;;;;;;;;;12.33;11.67;;;;;;;;6308866;22;45330;-73
2023/10/09 01:18:37;;;;;;;;;17.00;12.67;;;;;;;;6280867;22;45463;-73
2023/10/09 01:21:03;;;;;;;;;19.67;15.67;;;;;;;;6308631;22;45451;-73
2023/10/09 01:23:29;;;;;;;;;14.67;14.33;;;;;;;;6308673;22;45220;-73
2023/10/09 01:25:54;;;;;;;;;15.00;13.00;;;;;;;;6280653;22;45276;-73
2023/10/09 01:28:20;;;;;;;;;13.33;12.67;;;;;;;;6309091;22;45414;-73
2023/10/09 01:30:47;;;;;;;;;14.33;11.33;;;;;;;;6308692;22;45274;-73
2023/10/09 01:33:15;;;;;;;;;12.67;11.67;;;;;;;;6308996;22;45307;-73
2023/10/09 01:35:47;;;;;;;;;16.67;13.00;;;;;;;;6308927;22;45141;-74
2023/10/09 01:38:15;;;;;;;;;15.00;13.00;;;;;;;;6309187;22;45248;-73
2023/10/09 01:40:40;;;;;;;;;13.00;13.00;;;;;;;;6308531;22;45189;-73
2023/10/09 01:43:09;;;;;;;;;13.33;13.33;;;;;;;;6281059;22;45431;-73
2023/10/09 01:45:41;;;;;;;;;12.67;12.67;;;;;;;;6309451;22;45466;-73
2023/10/09 01:48:08;;;;;;;;;14.67;14.33;;;;;;;;6280295;22;45230;-73
2023/10/09 01:50:35;;;;;;;;;13.67;13.00;;;;;;;;6308681;22;45257;-73
2023/10/09 01:53:05;;;;;;;;;17.00;14.00;;;;;;;;6307887;22;45397;-73
2023/10/09 01:55:37;;;;;;;;;19.33;15.67;;;;;;;;6308927;22;45183;-73
2023/10/09 01:58:16;;;;;;;;;18.67;17.33;;;;;;;;6308209;22;45425;-73
2023/10/09 02:00:43;;;;;;;;;16.33;14.00;;;;;;;;6308442;22;45107;-73
2023/10/09 02:03:12;;;;;;;;;16.00;14.33;;;;;;;;6309185;22;45184;-73
2023/10/09 02:05:38;;;;;;;;;16.67;13.00;;;;;;;;6308540;22;45279;-73
2023/10/09 02:08:05;;;;;;;;;18.00;14.33;;;;;;;;6280213;22;46005;-73
2023/10/09 02:10:31;;;;;;;;;15.67;14.33;;;;;;;;6308757;22;46382;-74
2023/10/09 02:13:06;;;;;;;;;15.33;13.00;;;;;;;;6308548;22;45167;-73
2023/10/09 02:18:26;;;;;;;;;18.33;13.00;;;;;;;;6305574;22;45173;-74
2023/10/09 02:21:12;;;;;;;;;16.00;16.00;;;;;;;;6308588;22;46471;-73
2023/10/09 02:23:49;;;;;;;;;15.00;15.00;;;;;;;;6309831;22;45176;-73
2023/10/09 02:26:40;;;;;;;;;13.00;11.67;;;;;;;;6309919;22;45219;-73
2023/10/09 02:29:14;;;;;;;;;14.67;14.33;;;;;;;;6309698;22;46020;-73
2023/10/09 02:31:46;;;;;;;;;23.00;17.00;;;;;;;;6280842;22;45578;-73
2023/10/09 02:34:11;;;;;;;;;19.00;15.33;;;;;;;;6283776;22;45252;-73
2023/10/09 02:36:48;;;;;;;;;18.00;16.67;;;;;;;;6309807;22;45374;-73
2023/10/09 02:39:22;;;;;;;;;14.33;12.67;;;;;;;;6281183;22;46572;-73
2023/10/09 02:41:50;;;;;;;;;23.67;20.00;;;;;;;;6308665;22;45351;-73
2023/10/09 02:44:15;;;;;;;;;15.67;15.67;;;;;;;;6309881;22;45294;-73
2023/10/09 02:46:41;;;;;;;;;17.00;16.33;;;;;;;;6309831;22;45209;-73
2023/10/09 02:49:07;;;;;;;;;18.33;14.67;;;;;;;;6309807;22;45219;-74
2023/10/09 02:51:32;;;;;;;;;21.67;18.00;;;;;;;;6309382;22;45190;-74
2023/10/09 02:54:07;;;;;;;;;15.33;14.67;;;;;;;;6281806;22;45150;-74
2023/10/09 02:56:47;;;;;;;;;18.67;17.33;;;;;;;;6309941;22;45231;-74
2023/10/09 02:59:12;;;;;;;;;23.33;16.00;;;;;;;;6309740;22;45275;-74
2023/10/09 03:01:38;;;;;;;;;18.67;17.33;;;;;;;;6309580;22;45255;-74
2023/10/09 03:04:05;;;;;;;;;17.33;16.33;;;;;;;;6309506;22;45265;-74
2023/10/09 03:06:32;;;;;;;;;16.33;15.00;;;;;;;;6280878;22;45195;-74
2023/10/09 03:08:58;;;;;;;;;21.50;17.50;;;;;;;;6281212;22;45921;-74
2023/10/09 03:11:23;;;;;;;;;15.00;15.00;;;;;;;;6280841;22;47806;-74
2023/10/09 03:13:48;;;;;;;;;14.00;14.00;;;;;;;;6281183;22;45229;-74
2023/10/09 03:16:19;;;;;;;;;20.33;16.00;;;;;;;;6309946;22;45270;-73
2023/10/09 03:18:52;;;;;;;;;16.33;14.67;;;;;;;;6309746;22;45341;-73
2023/10/09 03:21:17;;;;;;;;;18.67;15.00;;;;;;;;6309305;22;46491;-73
2023/10/09 03:23:43;;;;;;;;;18.00;16.33;;;;;;;;6309229;22;45296;-73
2023/10/09 03:26:09;;;;;;;;;17.67;15.67;;;;;;;;6310037;22;45257;-73
2023/10/09 03:28:35;;;;;;;;;14.67;13.00;;;;;;;;6309758;22;45275;-73
2023/10/09 03:31:02;;;;;;;;;14.33;11.67;;;;;;;;6280964;22;46962;-73
2023/10/09 03:33:32;;;;;;;;;14.00;12.67;;;;;;;;6281051;22;45207;-73
2023/10/09 03:35:58;;;;;;;;;12.33;12.33;;;;;;;;6309617;22;45729;-73
2023/10/09 03:38:23;;;;;;;;;15.00;12.67;;;;;;;;6309810;22;45261;-73
2023/10/09 03:40:48;;;;;;;;;14.67;12.00;;;;;;;;6309602;22;45361;-73
2023/10/09 03:43:14;;;;;;;;;16.00;14.00;;;;;;;;6308462;22;45285;-73
2023/10/09 03:45:52;;;;;;;;;16.67;12.33;;;;;;;;6310123;22;45326;-73
2023/10/09 03:48:26;;;;;;;;;11.00;10.67;;;;;;;;6309618;22;45314;-73
2023/10/09 03:51:11;;;;;;;;;12.00;11.00;;;;;;;;6309206;22;45373;-73
2023/10/09 03:53:36;;;;;;;;;12.00;12.00;;;;;;;;6281716;22;45269;-73
2023/10/09 03:56:09;;;;;;;;;10.67;9.33;;;;;;;;6281600;22;45211;-73
2023/10/09 03:58:34;;;;;;;;;10.67;9.00;;;;;;;;6281651;22;45957;-73
2023/10/09 04:01:00;;;;;;;;;14.00;12.00;;;;;;;;6309113;22;45670;-74
2023/10/09 04:03:25;;;;;;;;;11.67;11.67;;;;;;;;6309458;22;45263;-73
2023/10/09 04:05:53;;;;;;;;;15.33;13.67;;;;;;;;6309523;22;45209;-73
2023/10/09 04:08:28;;;;;;;;;12.67;11.00;;;;;;;;6309843;22;45263;-73
2023/10/09 04:10:54;;;;;;;;;14.00;12.67;;;;;;;;6309147;22;46400;-73
2023/10/09 04:13:22;;;;;;;;;14.67;13.67;;;;;;;;6309781;22;45221;-73
2023/10/09 04:15:49;;;;;;;;;13.33;11.33;;;;;;;;6309028;22;45260;-73
2023/10/09 04:18:20;;;;;;;;;14.00;11.67;;;;;;;;6309543;22;45290;-73
2023/10/09 04:23:59;;;;;;;;;12.67;12.67;;;;;;;;6308838;22;45288;-73
2023/10/09 04:26:21;;;;;;;;;13.33;10.67;;;;;;;;6309032;22;45206;-73
2023/10/09 04:28:51;;;;;;;;;14.00;12.67;;;;;;;;6309451;22;45407;-73
2023/10/09 04:31:17;;;;;;;;;15.00;13.67;;;;;;;;6307637;22;46546;-73
2023/10/09 04:33:54;;;;;;;;;14.33;13.00;;;;;;;;6309046;22;45312;-73
2023/10/09 04:41:28;;;;;;;;;11.33;11.33;;;;;;;;6309125;22;45988;-73
2023/10/09 04:44:03;;;;;;;;;20.00;14.33;;;;;;;;6308745;22;45272;-74
2023/10/09 04:46:31;;;;;;;;;10.00;9.00;;;;;;;;6281112;22;45280;-74
2023/10/09 04:49:15;;;;;;;;;15.33;12.33;;;;;;;;6281182;22;45404;-73
2023/10/09 04:51:58;;;;;;;;;12.67;10.33;;;;;;;;6308998;22;46249;-73
2023/10/09 04:54:39;;;;;;;;;14.00;12.00;;;;;;;;6307803;22;45331;-73
2023/10/09 04:57:04;;;;;;;;;15.00;13.00;;;;;;;;6309046;22;45389;-73
2023/10/09 04:59:29;;;;;;;;;13.33;12.00;;;;;;;;6309170;22;45417;-73
2023/10/09 05:01:58;;;;;;;;;16.00;15.00;;;;;;;;6309290;22;45218;-73
2023/10/09 05:07:36;;;;;;;;;12.67;12.67;;;;;;;;6258992;22;45364;-73
2023/10/09 05:10:24;;;;;;;;;17.67;16.33;;;;;;;;6309410;22;45428;-73
2023/10/09 05:12:56;;;;;;;;;15.33;12.00;;;;;;;;6303367;22;46128;-73
2023/10/09 05:15:26;;;;;;;;;21.33;16.33;;;;;;;;6309438;22;45168;-73
2023/10/09 05:17:56;;;;;;;;;16.00;13.33;;;;;;;;6309792;22;45197;-73
2023/10/09 05:22:58;;;;;;;;;16.33;13.00;;;;;;;;6307523;22;45176;-73
2023/10/09 05:25:53;;;;;;;;;13.00;11.33;;;;;;;;6309412;22;45233;-73
2023/10/09 05:28:48;;;;;;;;;15.33;13.67;;;;;;;;6309077;22;45258;-73
2023/10/09 05:31:44;;;;;;;;;13.33;12.33;;;;;;;;6308307;22;45522;-74
2023/10/09 05:34:01;;;;;;;;;15.67;13.00;;;;;;;;6307836;22;45283;-74
2023/10/09 05:41:52;;;;;;;;;18.00;14.33;;;;;;;;6308868;22;45200;-74
2023/10/09 05:49:46;;;;;;;;;14.00;12.33;;;;;;;;6308976;22;45448;-72
2023/10/09 06:14:04;;;;;;;;;19.00;13.00;;;;;;;;6308423;22;45100;-73
2023/10/09 06:16:41;;;;;;;;;11.00;11.00;;;;;;;;6308394;22;45443;-73
2023/10/09 06:19:11;;;;;;;;;13.00;12.00;;;;;;;;6308555;22;45280;-73
2023/10/09 06:22:30;;;;;;;;;16.00;14.00;;;;;;;;6279852;22;44757;-73
2023/10/09 06:24:33;;;;;;;;;19.67;15.67;;;;;;;;6308081;22;45133;-73
2023/10/09 06:34:51;;;;;;;;;18.67;13.33;;;;;;;;6307639;22;45626;-73
2023/10/09 06:37:34;;;;;;;;;18.67;15.00;;;;;;;;6307534;22;45539;-72
2023/10/09 06:45:00;;;;;;;;;14.33;12.33;;;;;;;;6308246;22;45223;-72
2023/10/09 06:47:25;;;;;;;;;17.00;15.00;;;;;;;;6279678;22;47164;-72
2023/10/09 06:55:32;;;;;;;;;13.00;13.00;;;;;;;;6308078;22;45182;-71
2023/10/09 06:57:59;;;;;;;;;20.00;17.00;;;;;;;;6279156;22;45508;-71
2023/10/09 07:03:11;;;;;;;;;28.00;18.67;;;;;;;;6308197;22;45272;-71
2023/10/09 07:06:00;;;;;;;;;18.67;18.00;;;;;;;;6308031;22;45513;-72
2023/10/09 07:08:37;;;;;;;;;24.67;18.00;;;;;;;;6308046;22;46280;-72
2023/10/09 07:11:57;;;;;;;;;16.67;12.33;;;;;;;;6309581;22;45259;-73
2023/10/09 07:13:54;;;;;;;;;18.00;16.67;;;;;;;;6308227;22;45327;-72
2023/10/09 07:16:28;;;;;;;;;23.00;18.00;;;;;;;;6281075;22;45181;-72
2023/10/09 07:18:54;;;;;;;;;20.33;16.33;;;;;;;;6309420;22;45271;-72
2023/10/09 07:21:27;;;;;;;;;20.33;18.67;;;;;;;;6309052;22;45240;-72
2023/10/09 07:23:57;;;;;;;;;17.67;15.33;;;;;;;;6309483;22;45201;-72
2023/10/09 07:26:36;;;;;;;;;17.67;14.67;;;;;;;;6308216;22;46150;-72
2023/10/09 07:29:15;;;;;;;;;22.33;19.00;;;;;;;;6309405;22;45206;-72
2023/10/09 07:31:45;;;;;;;;;23.00;18.00;;;;;;;;6309263;22;45408;-73
2023/10/09 07:36:56;;;;;;;;;15.00;14.67;;;;;;;;6309071;22;45239;-73
2023/10/09 07:39:22;;;;;;;;;15.00;15.00;;;;;;;;6309305;22;45563;-74
2023/10/09 07:42:01;;;;;;;;;21.33;17.67;;;;;;;;6309868;22;45180;-73
2023/10/09 07:44:39;;;;;;;;;21.67;18.33;;;;;;;;6309792;22;45302;-72
2023/10/09 07:47:16;;;;;;;;;17.67;17.67;;;;;;;;6281015;22;45970;-72
2023/10/09 07:49:48;;;;;;;;;19.67;19.00;;;;;;;;6282311;22;46220;-72
2023/10/09 07:52:13;;;;;;;;;25.00;19.00;;;;;;;;6310123;22;45275;-72
2023/10/09 07:54:48;;;;;;;;;23.00;18.67;;;;;;;;6309715;22;45257;-72
2023/10/09 07:57:16;;;;;;;;;19.00;19.00;;;;;;;;6309223;22;45286;-72
2023/10/09 07:59:54;;;;;;;;;20.00;17.67;;;;;;;;6281565;22;47083;-72
2023/10/09 08:02:29;;;;;;;;;21.33;17.33;;;;;;;;6281178;22;45461;-72
2023/10/09 08:05:03;;;;;;;;;22.00;15.33;;;;;;;;6309303;22;45262;-72
2023/10/09 08:07:34;;;;;;;;;35.33;29.33;;;;;;;;6280956;22;45580;-72
2023/10/09 08:15:20;;;;;;;;;29.67;27.00;;;;;;;;6305975;22;45299;-72
2023/10/09 08:17:58;;;;;;;;;26.33;24.33;;;;;;;;6280700;22;45778;-72
2023/10/09 08:20:25;;;;;;;;;30.67;23.00;;;;;;;;6309047;22;47251;-71
2023/10/09 08:22:52;;;;;;;;;22.00;21.00;;;;;;;;6308304;22;45436;-72
2023/10/09 08:25:26;;;;;;;;;20.67;19.33;;;;;;;;6281833;22;45205;-72
2023/10/09 08:27:55;;;;;;;;;22.33;19.33;;;;;;;;6308909;22;45271;-71
2023/10/09 08:33:02;;;;;;;;;19.00;18.33;;;;;;;;6308356;22;45386;-71
2023/10/09 08:35:32;;;;;;;;;19.67;16.67;;;;;;;;6309618;22;45248;-71
2023/10/09 08:38:07;;;;;;;;;23.67;17.33;;;;;;;;6280645;22;45621;-71
2023/10/09 08:40:40;;;;;;;;;18.33;13.67;;;;;;;;6309501;22;45450;-71
2023/10/09 08:43:16;;;;;;;;;15.67;14.67;;;;;;;;6309306;22;45342;-72
2023/10/09 08:45:45;;;;;;;;;15.67;14.00;;;;;;;;6280906;22;45251;-71
2023/10/09 08:48:17;;;;;;;;;20.33;15.67;;;;;;;;6280611;22;46224;-72
2023/10/09 08:50:44;;;;;;;;;16.67;15.33;;;;;;;;6309118;22;45576;-71
2023/10/09 08:53:10;;;;;;;;;16.00;14.33;;;;;;;;6309335;22;45319;-71
2023/10/09 08:55:37;;;;;;;;;15.67;14.00;;;;;;;;6281611;22;45177;-71
2023/10/09 08:58:05;;;;;;;;;15.33;13.00;;;;;;;;6280803;22;46638;-71
2023/10/09 09:00:33;;;;;;;;;12.00;10.67;;;;;;;;6281440;22;46236;-72
2023/10/09 09:03:00;;;;;;;;;13.00;13.00;;;;;;;;6308658;22;45306;-71
2023/10/09 09:05:28;;;;;;;;;17.67;17.67;;;;;;;;6309566;22;45111;-72
2023/10/09 09:07:56;;;;;;;;;13.33;12.67;;;;;;;;6308962;22;45281;-72
2023/10/09 09:10:34;;;;;;;;;16.33;15.00;;;;;;;;6309242;22;45332;-72
2023/10/09 09:13:03;;;;;;;;;17.67;16.00;;;;;;;;6309019;22;45197;-72
2023/10/09 09:15:29;;;;;;;;;12.67;12.33;;;;;;;;6309406;22;45239;-72
2023/10/09 09:18:22;;;;;;;;;16.00;13.00;;;;;;;;6308570;22;46041;-72
2023/10/09 09:20:48;;;;;;;;;15.33;12.67;;;;;;;;6304382;22;46370;-72
2023/10/09 09:23:13;;;;;;;;;12.00;11.00;;;;;;;;6309563;22;45274;-72
2023/10/09 09:25:46;;;;;;;;;13.33;12.00;;;;;;;;6309862;22;45185;-71
2023/10/09 09:28:21;;;;;;;;;11.67;11.00;;;;;;;;6280792;22;46688;-72
2023/10/09 09:30:51;;;;;;;;;11.67;10.67;;;;;;;;6308166;22;45397;-72
2023/10/09 09:33:44;;;;;;;;;13.67;12.00;;;;;;;;6308636;22;45221;-72
2023/10/09 09:36:12;;;;;;;;;9.67;9.67;;;;;;;;6280568;22;45416;-72
2023/10/09 09:38:42;;;;;;;;;15.00;12.00;;;;;;;;6280343;22;45297;-72
2023/10/09 09:41:07;;;;;;;;;14.33;13.00;;;;;;;;6310509;22;45397;-72
2023/10/09 09:43:35;;;;;;;;;12.33;12.00;;;;;;;;6311526;22;45266;-72
2023/10/09 09:46:03;;;;;;;;;18.67;14.67;;;;;;;;6308551;22;45232;-71
2023/10/09 09:48:29;;;;;;;;;11.00;11.00;;;;;;;;6280788;22;45459;-72
2023/10/09 09:50:54;;;;;;;;;15.33;13.00;;;;;;;;6308297;22;45999;-72
2023/10/09 09:53:23;;;;;;;;;14.00;12.00;;;;;;;;6309170;22;45169;-73
2023/10/09 09:55:55;;;;;;;;;14.67;11.67;;;;;;;;6308514;22;45216;-73
2023/10/09 09:58:23;;;;;;;;;12.33;12.33;;;;;;;;6307864;22;45285;-73
2023/10/09 10:00:53;;;;;;;;;14.33;12.67;;;;;;;;6278896;22;48262;-72
2023/10/09 10:03:27;;;;;;;;;15.00;12.33;;;;;;;;6279562;22;45268;-73
2023/10/09 10:05:56;;;;;;;;;11.67;10.00;;;;;;;;6279769;22;45174;-72
2023/10/09 10:08:27;;;;;;;;;13.33;12.33;;;;;;;;6308155;22;45295;-72
2023/10/09 10:10:58;;;;;;;;;14.33;10.33;;;;;;;;6308108;22;46278;-72
2023/10/09 10:13:41;;;;;;;;;12.25;11.50;;;;;;;;6308343;22;45369;-72
2023/10/09 10:16:11;;;;;;;;;16.50;10.50;;;;;;;;6308610;22;45247;-72
2023/10/09 10:19:30;;;;;;;;;9.25;9.25;;;;;;;;6308264;22;45351;-73
2023/10/09 10:21:52;;;;;;;;;17.50;10.50;;;;;;;;6301368;22;46427;-73
2023/10/09 10:24:30;;;;;;;;;10.00;10.00;;;;;;;;6280446;22;45228;-72
2023/10/09 10:30:12;;;;;;;;;8.25;8.00;;;;;;;;6259352;22;45148;-72
2023/10/09 10:32:57;;;;;;;;;8.00;6.50;;;;;;;;6308018;22;45560;-72
2023/10/09 10:38:22;;;;;;;;;12.50;11.00;;;;;;;;6308120;22;45255;-72
2023/10/09 10:40:56;;;;;;;;;7.75;6.75;;;;;;;;6308654;22;45430;-71
2023/10/09 10:43:47;;;;;;;;;6.25;5.00;;;;;;;;6309136;22;46075;-73
2023/10/09 10:49:14;;;;;;;;;15.50;13.00;;;;;;;;6309690;22;45657;-72
2023/10/09 10:51:39;;;;;;;;;7.80;5.80;;;;;;;;6280644;22;46923;-73
2023/10/09 10:56:49;;;;;;;;;7.60;5.80;;;;;;;;6309648;22;45136;-72
2023/10/09 10:59:22;;;;;;;;;3.75;3.75;;;;;;;;6310209;22;45227;-72
2023/10/09 11:02:13;;;;;;;;;5.00;4.20;;;;;;;;6308467;22;45224;-73
2023/10/09 11:04:41;;;;;;;;;3.80;2.80;;;;;;;;6309469;22;46504;-72
2023/10/09 11:07:09;;;;;;;;;2.80;2.80;;;;;;;;6309743;22;45152;-72
2023/10/09 11:15:37;;;;;;;;;8.80;5.60;;;;;;;;6309581;22;45350;-73
2023/10/09 11:18:19;;;;;;;;;4.60;4.60;;;;;;;;6309543;22;45263;-72
2023/10/09 11:28:57;;;;;;;;;5.00;5.00;;;;;;;;6309896;22;45245;-71
2023/10/09 11:31:23;;;;;;;;;6.00;5.80;;;;;;;;6310371;22;45293;-71
2023/10/09 11:33:51;;;;;;;;;4.00;4.00;;;;;;;;6281476;22;45761;-71
2023/10/09 11:36:16;;;;;;;;;4.40;4.40;;;;;;;;6309133;22;45415;-71
2023/10/09 11:38:45;;;;;;;;;6.25;4.25;;;;;;;;6281108;22;45284;-72
2023/10/09 11:41:22;;;;;;;;;6.80;5.00;;;;;;;;6309658;22;45232;-72
2023/10/09 11:43:52;;;;;;;;;4.80;3.60;;;;;;;;6309463;22;45397;-72
2023/10/09 11:46:48;;;;;;;;;4.20;3.80;;;;;;;;6308900;22;45559;-72
2023/10/09 11:52:31;;;;;;;;;4.80;4.00;;;;;;;;6309288;22;45159;-72
2023/10/09 11:54:31;;;;;;;;;7.80;5.60;;;;;;;;6308197;22;45141;-72
2023/10/09 11:56:56;;;;;;;;;4.40;4.40;;;;;;;;6309111;22;46368;-71
2023/10/09 11:59:23;;;;;;;;;3.25;3.25;;;;;;;;6280708;22;45292;-72
2023/10/09 12:01:52;;;;;;;;;7.60;5.80;;;;;;;;6280610;22;45299;-72
2023/10/09 12:04:18;;;;;;;;;6.00;6.00;;;;;;;;6308873;22;45252;-72
2023/10/09 12:06:44;;;;;;;;;5.40;5.40;;;;;;;;6309008;22;45595;-71
2023/10/09 12:09:16;;;;;;;;;7.00;5.00;;;;;;;;6309442;22;45188;-71
2023/10/09 12:11:41;;;;;;;;;2.80;2.80;;;;;;;;6309569;22;45283;-72
2023/10/09 12:14:06;;;;;;;;;6.75;5.25;;;;;;;;6309449;22;45348;-72
2023/10/09 12:16:32;;;;;;;;;6.75;5.75;;;;;;;;6309085;22;45348;-72
2023/10/09 12:18:59;;;;;;;;;6.50;5.00;;;;;;;;6309162;22;45251;-72
2023/10/09 12:21:24;;;;;;;;;8.80;7.00;;;;;;;;6309273;22;45527;-71
2023/10/09 12:23:49;;;;;;;;;5.00;4.00;;;;;;;;6280739;22;45914;-71
2023/10/09 12:26:14;;;;;;;;;9.00;7.00;;;;;;;;6309138;22;46393;-71
2023/10/09 12:28:46;;;;;;;;;8.00;5.00;;;;;;;;6281013;22;45236;-71
2023/10/09 12:31:20;;;;;;;;;7.40;6.00;;;;;;;;6309232;22;45326;-71
2023/10/09 12:33:47;;;;;;;;;4.40;4.00;;;;;;;;6280837;22;45399;-71
2023/10/09 12:36:22;;;;;;;;;6.60;5.00;;;;;;;;6308720;22;45393;-71
2023/10/09 12:38:53;;;;;;;;;5.80;4.60;;;;;;;;6309284;22;45170;-71
2023/10/09 12:41:25;;;;;;;;;11.00;7.80;;;;;;;;6280442;22;45252;-71
2023/10/09 12:43:51;;;;;;;;;5.20;5.20;;;;;;;;6309680;22;45165;-71
2023/10/09 12:46:17;;;;;;;;;7.40;7.40;;;;;;;;6308803;22;45471;-71
2023/10/09 12:48:46;;;;;;;;;7.75;7.75;;;;;;;;6309287;22;45179;-71
2023/10/09 12:51:16;;;;;;;;;7.60;6.20;;;;;;;;6308966;22;45299;-71
2023/10/09 12:53:41;;;;;;;;;4.20;3.40;;;;;;;;6280400;22;46959;-71
2023/10/09 12:56:07;;;;;;;;;3.25;2.25;;;;;;;;6308736;22;46339;-72
2023/10/09 12:58:37;;;;;;;;;6.00;6.00;;;;;;;;6280631;22;45280;-71
2023/10/09 13:01:09;;;;;;;;;5.20;5.00;;;;;;;;6308082;22;45287;-72
2023/10/09 13:03:38;;;;;;;;;10.20;8.20;;;;;;;;6308022;22;45397;-72
2023/10/09 13:06:07;;;;;;;;;9.60;8.40;;;;;;;;6307369;22;47028;-72
2023/10/09 13:08:35;;;;;;;;;6.60;5.80;;;;;;;;6279676;22;45586;-72
2023/10/09 13:11:10;;;;;;;;;4.80;4.80;;;;;;;;6308268;22;45634;-71
2023/10/09 13:13:47;;;;;;;;;7.60;6.80;;;;;;;;6309257;22;45483;-71
2023/10/09 13:16:13;;;;;;;;;7.40;5.20;;;;;;;;6308956;22;45391;-71
2023/10/09 13:18:49;;;;;;;;;9.75;6.25;;;;;;;;6309886;22;45178;-71
2023/10/09 13:21:15;;;;;;;;;18.00;18.00;;;;;;;;6279939;22;45289;-71
2023/10/09 13:23:41;;;;;;;;;7.00;7.00;;;;;;;;6280048;22;45912;-71
2023/10/09 13:26:21;;;;;;;;;7.40;7.40;;;;;;;;6279887;22;47397;-71
2023/10/09 13:28:48;;;;;;;;;7.40;6.20;;;;;;;;6280402;22;45374;-72
2023/10/09 13:31:14;;;;;;;;;62.67;47.67;;;;;;;;6280956;22;45226;-71
2023/10/09 13:33:39;;;;;;;;;60.00;48.00;;;;;;;;6308318;22;45226;-71
2023/10/09 13:36:16;;;;;;;;;8.50;7.25;;;;;;;;6308590;22;46299;-71
2023/10/09 13:38:43;;;;;;;;;13.40;11.00;;;;;;;;6309108;22;45235;-71
2023/10/09 13:41:12;;;;;;;;;12.50;12.00;;;;;;;;6281144;22;45306;-71
2023/10/09 13:43:40;;;;;;;;;5.00;4.80;;;;;;;;6308852;22;45440;-72
2023/10/09 13:46:06;;;;;;;;;11.00;8.00;;;;;;;;6308374;22;45334;-72
2023/10/09 13:48:37;;;;;;;;;10.75;8.75;;;;;;;;6280708;22;45818;-71
2023/10/09 13:51:07;;;;;;;;;6.40;5.80;;;;;;;;6308657;22;45323;-71
2023/10/09 13:53:32;;;;;;;;;6.40;6.40;;;;;;;;6307235;22;45311;-71
2023/10/09 13:55:58;;;;;;;;;5.00;5.00;;;;;;;;6308118;22;45214;-71
2023/10/09 13:58:23;;;;;;;;;8.00;7.00;;;;;;;;6309009;22;45274;-71
2023/10/09 14:00:50;;;;;;;;;8.00;7.25;;;;;;;;6309112;22;45379;-71
2023/10/09 14:03:19;;;;;;;;;13.25;7.75;;;;;;;;6308107;22;45323;-72
2023/10/09 14:05:58;;;;;;;;;9.60;7.40;;;;;;;;6308191;22;45145;-71
2023/10/09 14:08:23;;;;;;;;;7.20;6.00;;;;;;;;6308856;22;45216;-71
2023/10/09 14:10:49;;;;;;;;;7.75;6.50;;;;;;;;6279711;22;45271;-72
2023/10/09 14:13:17;;;;;;;;;9.00;6.25;;;;;;;;6308359;22;45224;-72
2023/10/09 14:15:43;;;;;;;;;7.60;7.00;;;;;;;;6308236;22;45146;-72
2023/10/09 14:18:11;;;;;;;;;7.60;5.80;;;;;;;;6282914;22;45214;-72
2023/10/09 14:20:41;;;;;;;;;7.80;5.00;;;;;;;;6311706;22;45261;-72
2023/10/09 14:23:07;;;;;;;;;6.80;4.80;;;;;;;;6311157;22;45426;-72
2023/10/09 14:25:33;;;;;;;;;6.50;5.50;;;;;;;;6311859;22;45469;-72
2023/10/09 14:27:58;;;;;;;;;5.40;5.40;;;;;;;;6311723;22;45189;-72
2023/10/09 14:30:30;;;;;;;;;5.00;5.00;;;;;;;;6312609;22;45133;-72
2023/10/09 14:32:56;;;;;;;;;7.60;6.20;;;;;;;;6311392;22;45347;-72
2023/10/09 14:35:26;;;;;;;;;5.20;5.20;;;;;;;;6312147;22;46405;-72
2023/10/09 14:37:51;;;;;;;;;17.00;16.75;;;;;;;;6310875;22;45313;-72
2023/10/09 14:40:20;;;;;;;;;15.25;13.00;;;;;;;;6312433;22;45185;-72
2023/10/09 14:42:46;;;;;;;;;8.25;5.25;;;;;;;;6311215;22;45456;-72
2023/10/09 14:45:15;;;;;;;;;7.25;6.00;;;;;;;;6284057;22;45572;-71
2023/10/09 14:47:46;;;;;;;;;6.20;6.20;;;;;;;;6311287;22;45083;-72
2023/10/09 14:50:13;;;;;;;;;10.50;7.50;;;;;;;;6284023;22;45292;-72
2023/10/09 14:52:38;;;;;;;;;6.75;5.00;;;;;;;;6311146;22;45365;-72
2023/10/09 14:55:04;;;;;;;;;6.25;6.25;;;;;;;;6283398;22;46151;-72
2023/10/09 14:57:33;;;;;;;;;5.00;5.00;;;;;;;;6311575;22;45473;-72
2023/10/09 14:59:59;;;;;;;;;5.00;5.00;;;;;;;;6311765;22;45299;-72
2023/10/09 15:02:24;;;;;;;;;6.00;6.00;;;;;;;;6311670;22;45279;-72
2023/10/09 15:04:49;;;;;;;;;7.75;6.75;;;;;;;;6312252;22;45328;-72
2023/10/09 15:07:15;;;;;;;;;9.00;7.75;;;;;;;;6312602;22;45306;-72
2023/10/09 15:09:41;;;;;;;;;9.25;8.25;;;;;;;;6283807;22;45276;-72
2023/10/09 15:12:07;;;;;;;;;10.25;7.00;;;;;;;;6310408;22;45472;-72
2023/10/09 15:14:32;;;;;;;;;5.00;5.00;;;;;;;;6311779;22;45504;-72
2023/10/09 15:16:57;;;;;;;;;8.25;7.00;;;;;;;;6311194;22;45575;-72
2023/10/09 15:19:29;;;;;;;;;9.75;7.00;;;;;;;;6311739;22;45213;-72
2023/10/09 15:21:54;;;;;;;;;11.00;6.00;;;;;;;;6310635;22;45497;-71
2023/10/09 15:24:20;;;;;;;;;6.00;6.00;;;;;;;;6311282;22;45488;-72
2023/10/09 15:26:53;;;;;;;;;7.00;7.00;;;;;;;;6311413;22;45279;-72
2023/10/09 15:29:23;;;;;;;;;8.50;7.00;;;;;;;;6307742;22;45235;-72
2023/10/09 15:31:50;;;;;;;;;10.00;7.25;;;;;;;;6309442;22;45207;-72
2023/10/09 15:34:18;;;;;;;;;7.25;5.25;;;;;;;;6309021;22;45495;-72
2023/10/09 15:36:43;;;;;;;;;7.20;6.00;;;;;;;;6308872;22;45235;-72
2023/10/09 15:39:11;;;;;;;;;6.75;6.00;;;;;;;;6309772;22;45219;-72
2023/10/09 15:41:39;;;;;;;;;9.00;7.25;;;;;;;;6309436;22;45291;-72
2023/10/09 15:44:05;;;;;;;;;5.25;5.25;;;;;;;;6309054;22;47334;-72
2023/10/09 15:46:34;;;;;;;;;7.60;5.40;;;;;;;;6309322;22;45209;-72
2023/10/09 15:49:00;;;;;;;;;26.33;24.33;;;;;;;;6309085;22;45307;-72
2023/10/09 15:51:26;;;;;;;;;49.67;40.33;;;;;;;;6309222;22;45149;-71
2023/10/09 15:53:51;;;;;;;;;41.33;34.33;;;;;;;;6308898;22;46468;-72
2023/10/09 15:56:17;;;;;;;;;11.00;9.50;;;;;;;;6309589;22;45346;-72
2023/10/09 15:58:43;;;;;;;;;18.50;17.50;;;;;;;;6281587;22;45267;-71
2023/10/09 16:01:12;;;;;;;;;9.25;8.75;;;;;;;;6308860;22;45181;-71
2023/10/09 16:03:38;;;;;;;;;11.50;10.25;;;;;;;;6308903;22;45322;-71
2023/10/09 16:06:05;;;;;;;;;11.50;8.75;;;;;;;;6308916;22;45223;-71
2023/10/09 16:08:31;;;;;;;;;6.00;6.00;;;;;;;;6281669;22;45292;-72
2023/10/09 16:10:58;;;;;;;;;8.00;7.00;;;;;;;;6309291;22;45281;-72
2023/10/09 16:13:23;;;;;;;;;11.00;8.50;;;;;;;;6309084;22;45420;-72
2023/10/09 16:15:48;;;;;;;;;9.50;9.25;;;;;;;;6309738;22;45211;-72
2023/10/09 16:18:14;;;;;;;;;10.50;9.50;;;;;;;;6309155;22;45416;-72
2023/10/09 16:20:39;;;;;;;;;9.75;8.75;;;;;;;;6309338;22;45457;-72
2023/10/09 16:23:04;;;;;;;;;7.50;7.50;;;;;;;;6280490;22;47094;-72
2023/10/09 16:25:30;;;;;;;;;12.00;7.75;;;;;;;;6280933;22;45710;-72
2023/10/09 16:27:58;;;;;;;;;10.75;9.00;;;;;;;;6309206;22;45220;-71
2023/10/09 16:30:23;;;;;;;;;8.50;7.75;;;;;;;;6309182;22;45357;-71
2023/10/09 16:32:50;;;;;;;;;10.25;8.00;;;;;;;;6308518;22;45403;-72
2023/10/09 16:35:16;;;;;;;;;7.75;7.75;;;;;;;;6281542;22;45242;-71
2023/10/09 16:37:41;;;;;;;;;11.25;7.50;;;;;;;;6308514;22;45248;-72
2023/10/09 16:40:11;;;;;;;;;8.75;6.25;;;;;;;;6279993;22;45780;-71
2023/10/09 16:42:37;;;;;;;;;8.75;7.00;;;;;;;;6308946;22;45533;-71